sensor_id;sensor_type;location;lat;lon;timestamp;temperature;humidity
9403;DHT22;4741;49.834;10.740;2022-09-01T00:02:28;14.20;99.90
9403;DHT22;4741;49.834;10.740;2022-09-01T00:04:55;15.00;99.90
9403;DHT22;4741;49.834;10.740;2022-09-01T00:07:27;14.50;99.90
9403;DHT22;4741;49.834;10.740;2022-09-01T00:09:58;15.10;99.90
9403;DHT22;4741;49.834;10.740;2022-09-01T00:12:27;14.60;99.90
9403;DHT22;4741;49.834;10.740;2022-09-01T00:15:04;14.60;99.90
9403;DHT22;4741;49.834;10.740;2022-09-01T00:17:46;14.50;99.90
9403;DHT22;4741;49.834;10.740;2022-09-01T00:20:13;14.20;99.90
9403;DHT22;4741;49.834;10.740;2022-09-01T00:22:45;14.60;99.90
9403;DHT22;4741;49.834;10.740;2022-09-01T00:25:12;14.60;99.90
9403;DHT22;4741;49.834;10.740;2022-09-01T00:27:39;14.60;99.90
9403;DHT22;4741;49.834;10.740;2022-09-01T00:30:06;13.50;99.90
9403;DHT22;4741;49.834;10.740;2022-09-01T00:32:33;14.00;99.90
9403;DHT22;4741;49.834;10.740;2022-09-01T00:35:00;13.80;99.90
9403;DHT22;4741;49.834;10.740;2022-09-01T00:37:26;13.80;99.90
9403;DHT22;4741;49.834;10.740;2022-09-01T00:42:20;13.70;99.90
9403;DHT22;4741;49.834;10.740;2022-09-01T00:44:47;14.10;99.90
9403;DHT22;4741;49.834;10.740;2022-09-01T00:47:14;13.90;99.90
9403;DHT22;4741;49.834;10.740;2022-09-01T00:49:42;14.20;99.90
9403;DHT22;4741;49.834;10.740;2022-09-01T00:52:15;14.40;99.90
9403;DHT22;4741;49.834;10.740;2022-09-01T00:54:44;13.50;99.90
9403;DHT22;4741;49.834;10.740;2022-09-01T00:59:41;13.20;99.90
9403;DHT22;4741;49.834;10.740;2022-09-01T01:02:09;13.20;99.90
9403;DHT22;4741;49.834;10.740;2022-09-01T01:04:36;13.50;99.90
9403;DHT22;4741;49.834;10.740;2022-09-01T01:07:03;13.60;99.90
9403;DHT22;4741;49.834;10.740;2022-09-01T01:09:33;13.60;99.90
9403;DHT22;4741;49.834;10.740;2022-09-01T01:12:02;13.70;99.90
9403;DHT22;4741;49.834;10.740;2022-09-01T01:14:29;13.30;99.90
9403;DHT22;4741;49.834;10.740;2022-09-01T01:16:59;13.20;99.90
9403;DHT22;4741;49.834;10.740;2022-09-01T01:22:13;13.00;99.90
9403;DHT22;4741;49.834;10.740;2022-09-01T01:25:01;13.00;99.90
9403;DHT22;4741;49.834;10.740;2022-09-01T01:27:34;12.90;99.90
9403;DHT22;4741;49.834;10.740;2022-09-01T01:30:09;13.00;99.90
9403;DHT22;4741;49.834;10.740;2022-09-01T01:32:37;13.00;99.90
9403;DHT22;4741;49.834;10.740;2022-09-01T01:35:11;12.80;99.90
9403;DHT22;4741;49.834;10.740;2022-09-01T01:37:45;12.70;99.90
9403;DHT22;4741;49.834;10.740;2022-09-01T01:40:16;12.80;99.90
9403;DHT22;4741;49.834;10.740;2022-09-01T01:42:44;12.90;99.90
9403;DHT22;4741;49.834;10.740;2022-09-01T01:45:12;13.00;99.90
9403;DHT22;4741;49.834;10.740;2022-09-01T01:47:43;13.00;99.90
9403;DHT22;4741;49.834;10.740;2022-09-01T01:50:12;13.00;99.90
9403;DHT22;4741;49.834;10.740;2022-09-01T01:52:41;12.90;99.90
9403;DHT22;4741;49.834;10.740;2022-09-01T01:55:11;12.80;99.90
9403;DHT22;4741;49.834;10.740;2022-09-01T01:57:39;12.90;99.90
9403;DHT22;4741;49.834;10.740;2022-09-01T02:00:07;13.40;99.90
9403;DHT22;4741;49.834;10.740;2022-09-01T02:02:36;12.90;99.90
9403;DHT22;4741;49.834;10.740;2022-09-01T02:05:05;12.90;99.90
9403;DHT22;4741;49.834;10.740;2022-09-01T02:07:32;12.90;99.90
9403;DHT22;4741;49.834;10.740;2022-09-01T02:09:59;12.90;99.90
9403;DHT22;4741;49.834;10.740;2022-09-01T02:12:27;12.50;99.90
9403;DHT22;4741;49.834;10.740;2022-09-01T02:14:54;13.00;99.90
9403;DHT22;4741;49.834;10.740;2022-09-01T02:17:21;12.70;99.90
9403;DHT22;4741;49.834;10.740;2022-09-01T02:19:48;12.70;99.90
9403;DHT22;4741;49.834;10.740;2022-09-01T02:22:14;12.80;99.90
9403;DHT22;4741;49.834;10.740;2022-09-01T02:24:41;12.70;99.90
9403;DHT22;4741;49.834;10.740;2022-09-01T02:27:14;12.60;99.90
9403;DHT22;4741;49.834;10.740;2022-09-01T02:29:47;12.70;99.90
9403;DHT22;4741;49.834;10.740;2022-09-01T02:32:20;12.70;99.90
9403;DHT22;4741;49.834;10.740;2022-09-01T02:34:48;12.70;99.90
9403;DHT22;4741;49.834;10.740;2022-09-01T02:37:19;12.70;99.90
9403;DHT22;4741;49.834;10.740;2022-09-01T02:39:51;13.20;99.90
9403;DHT22;4741;49.834;10.740;2022-09-01T02:42:23;12.60;99.90
9403;DHT22;4741;49.834;10.740;2022-09-01T02:44:53;12.50;99.90
9403;DHT22;4741;49.834;10.740;2022-09-01T02:47:21;12.40;99.90
9403;DHT22;4741;49.834;10.740;2022-09-01T02:49:49;12.10;99.90
9403;DHT22;4741;49.834;10.740;2022-09-01T02:52:16;12.00;99.90
9403;DHT22;4741;49.834;10.740;2022-09-01T02:54:46;11.90;99.90
9403;DHT22;4741;49.834;10.740;2022-09-01T02:57:14;11.90;99.90
9403;DHT22;4741;49.834;10.740;2022-09-01T02:59:41;11.80;99.90
9403;DHT22;4741;49.834;10.740;2022-09-01T03:02:09;11.80;99.90
9403;DHT22;4741;49.834;10.740;2022-09-01T03:04:36;11.70;99.90
9403;DHT22;4741;49.834;10.740;2022-09-01T03:07:03;11.60;99.90
9403;DHT22;4741;49.834;10.740;2022-09-01T03:09:30;11.70;99.90
9403;DHT22;4741;49.834;10.740;2022-09-01T03:11:58;11.90;99.90
9403;DHT22;4741;49.834;10.740;2022-09-01T03:14:24;12.00;99.90
9403;DHT22;4741;49.834;10.740;2022-09-01T03:16:51;11.80;99.90
9403;DHT22;4741;49.834;10.740;2022-09-01T03:19:18;11.70;99.90
9403;DHT22;4741;49.834;10.740;2022-09-01T03:21:45;11.70;99.90
9403;DHT22;4741;49.834;10.740;2022-09-01T03:24:14;11.70;99.90
9403;DHT22;4741;49.834;10.740;2022-09-01T03:26:42;11.60;99.90
9403;DHT22;4741;49.834;10.740;2022-09-01T03:29:09;11.60;99.90
9403;DHT22;4741;49.834;10.740;2022-09-01T03:31:36;11.80;99.90
9403;DHT22;4741;49.834;10.740;2022-09-01T03:34:03;11.80;99.90
9403;DHT22;4741;49.834;10.740;2022-09-01T03:36:31;11.90;99.90
9403;DHT22;4741;49.834;10.740;2022-09-01T03:38:59;11.80;99.90
9403;DHT22;4741;49.834;10.740;2022-09-01T03:41:27;11.80;99.90
9403;DHT22;4741;49.834;10.740;2022-09-01T03:43:54;11.80;99.90
9403;DHT22;4741;49.834;10.740;2022-09-01T03:46:22;12.20;99.90
9403;DHT22;4741;49.834;10.740;2022-09-01T03:48:51;11.60;99.90
9403;DHT22;4741;49.834;10.740;2022-09-01T03:51:18;11.60;99.90
9403;DHT22;4741;49.834;10.740;2022-09-01T03:53:46;11.60;99.90
9403;DHT22;4741;49.834;10.740;2022-09-01T03:56:12;11.60;99.90
9403;DHT22;4741;49.834;10.740;2022-09-01T03:58:41;11.60;99.90
9403;DHT22;4741;49.834;10.740;2022-09-01T04:01:13;11.60;99.90
9403;DHT22;4741;49.834;10.740;2022-09-01T04:03:40;11.40;99.90
9403;DHT22;4741;49.834;10.740;2022-09-01T04:06:07;11.50;99.90
9403;DHT22;4741;49.834;10.740;2022-09-01T04:08:34;11.80;99.90
9403;DHT22;4741;49.834;10.740;2022-09-01T04:11:02;11.50;99.90
9403;DHT22;4741;49.834;10.740;2022-09-01T04:13:35;11.50;99.90
9403;DHT22;4741;49.834;10.740;2022-09-01T04:16:02;11.60;99.90
9403;DHT22;4741;49.834;10.740;2022-09-01T04:18:29;11.60;99.90
9403;DHT22;4741;49.834;10.740;2022-09-01T04:20:57;11.50;99.90
9403;DHT22;4741;49.834;10.740;2022-09-01T04:23:29;11.40;99.90
9403;DHT22;4741;49.834;10.740;2022-09-01T04:26:02;11.60;99.90
9403;DHT22;4741;49.834;10.740;2022-09-01T04:28:39;11.50;99.90
9403;DHT22;4741;49.834;10.740;2022-09-01T04:31:08;11.50;99.90
9403;DHT22;4741;49.834;10.740;2022-09-01T04:33:36;11.40;99.90
9403;DHT22;4741;49.834;10.740;2022-09-01T04:36:13;11.50;99.90
9403;DHT22;4741;49.834;10.740;2022-09-01T04:38:40;11.60;99.90
9403;DHT22;4741;49.834;10.740;2022-09-01T04:41:07;11.20;99.90
9403;DHT22;4741;49.834;10.740;2022-09-01T04:43:34;11.20;99.90
9403;DHT22;4741;49.834;10.740;2022-09-01T04:46:01;10.90;99.90
9403;DHT22;4741;49.834;10.740;2022-09-01T04:48:28;11.00;99.90
9403;DHT22;4741;49.834;10.740;2022-09-01T04:50:57;11.00;99.90
9403;DHT22;4741;49.834;10.740;2022-09-01T04:53:24;11.10;99.90
9403;DHT22;4741;49.834;10.740;2022-09-01T04:55:54;11.10;99.90
9403;DHT22;4741;49.834;10.740;2022-09-01T04:58:21;11.10;99.90
9403;DHT22;4741;49.834;10.740;2022-09-01T05:00:48;11.00;99.90
9403;DHT22;4741;49.834;10.740;2022-09-01T05:03:17;11.10;99.90
9403;DHT22;4741;49.834;10.740;2022-09-01T05:05:49;11.20;99.90
9403;DHT22;4741;49.834;10.740;2022-09-01T05:08:17;11.30;99.90
9403;DHT22;4741;49.834;10.740;2022-09-01T05:10:50;11.20;99.90
9403;DHT22;4741;49.834;10.740;2022-09-01T05:13:18;11.20;99.90
9403;DHT22;4741;49.834;10.740;2022-09-01T05:15:46;11.20;99.90
9403;DHT22;4741;49.834;10.740;2022-09-01T05:18:16;11.30;99.90
9403;DHT22;4741;49.834;10.740;2022-09-01T05:20:49;11.30;99.90
9403;DHT22;4741;49.834;10.740;2022-09-01T05:23:16;11.40;99.90
9403;DHT22;4741;49.834;10.740;2022-09-01T05:25:47;11.60;99.90
9403;DHT22;4741;49.834;10.740;2022-09-01T05:28:15;11.60;99.90
9403;DHT22;4741;49.834;10.740;2022-09-01T05:30:45;11.60;99.90
9403;DHT22;4741;49.834;10.740;2022-09-01T05:33:13;11.70;99.90
9403;DHT22;4741;49.834;10.740;2022-09-01T05:35:55;12.00;99.90
9403;DHT22;4741;49.834;10.740;2022-09-01T05:40:56;12.40;99.90
9403;DHT22;4741;49.834;10.740;2022-09-01T05:43:23;12.40;99.90
9403;DHT22;4741;49.834;10.740;2022-09-01T05:45:50;12.60;99.90
9403;DHT22;4741;49.834;10.740;2022-09-01T05:48:33;12.50;99.90
9403;DHT22;4741;49.834;10.740;2022-09-01T05:53:43;13.20;99.90
9403;DHT22;4741;49.834;10.740;2022-09-01T05:56:09;13.10;99.90
9403;DHT22;4741;49.834;10.740;2022-09-01T05:58:38;13.10;99.90
9403;DHT22;4741;49.834;10.740;2022-09-01T06:01:26;13.00;99.90
9403;DHT22;4741;49.834;10.740;2022-09-01T06:03:54;13.20;99.90
9403;DHT22;4741;49.834;10.740;2022-09-01T06:06:22;13.40;99.90
9403;DHT22;4741;49.834;10.740;2022-09-01T06:11:29;13.90;99.90
9403;DHT22;4741;49.834;10.740;2022-09-01T06:14:22;14.00;99.90
9403;DHT22;4741;49.834;10.740;2022-09-01T06:19:23;14.30;99.90
9403;DHT22;4741;49.834;10.740;2022-09-01T06:22:06;14.30;99.90
9403;DHT22;4741;49.834;10.740;2022-09-01T06:24:59;14.40;99.90
9403;DHT22;4741;49.834;10.740;2022-09-01T06:31:27;14.80;99.90
9403;DHT22;4741;49.834;10.740;2022-09-01T06:35:11;15.00;99.90
9403;DHT22;4741;49.834;10.740;2022-09-01T06:37:59;15.10;99.90
9403;DHT22;4741;49.834;10.740;2022-09-01T06:40:27;14.90;99.90
9403;DHT22;4741;49.834;10.740;2022-09-01T06:42:54;16.20;99.90
9403;DHT22;4741;49.834;10.740;2022-09-01T06:45:21;15.60;99.90
9403;DHT22;4741;49.834;10.740;2022-09-01T06:47:49;15.20;99.90
9403;DHT22;4741;49.834;10.740;2022-09-01T06:50:25;15.40;99.90
9403;DHT22;4741;49.834;10.740;2022-09-01T06:53:13;15.80;99.90
9403;DHT22;4741;49.834;10.740;2022-09-01T06:56:01;15.20;99.90
9403;DHT22;4741;49.834;10.740;2022-09-01T06:58:28;16.20;99.90
9403;DHT22;4741;49.834;10.740;2022-09-01T07:00:56;16.50;99.90
9403;DHT22;4741;49.834;10.740;2022-09-01T07:03:23;16.50;99.90
9403;DHT22;4741;49.834;10.740;2022-09-01T07:05:51;16.60;99.90
9403;DHT22;4741;49.834;10.740;2022-09-01T07:08:35;16.70;99.90
9403;DHT22;4741;49.834;10.740;2022-09-01T07:11:25;17.50;99.90
9403;DHT22;4741;49.834;10.740;2022-09-01T07:14:13;17.40;99.90
9403;DHT22;4741;49.834;10.740;2022-09-01T07:16:42;17.50;99.90
9403;DHT22;4741;49.834;10.740;2022-09-01T07:19:29;17.50;99.90
9403;DHT22;4741;49.834;10.740;2022-09-01T07:22:16;17.90;99.90
9403;DHT22;4741;49.834;10.740;2022-09-01T07:25:03;18.50;99.90
9403;DHT22;4741;49.834;10.740;2022-09-01T07:27:39;18.00;99.90
9403;DHT22;4741;49.834;10.740;2022-09-01T07:30:07;18.20;99.90
9403;DHT22;4741;49.834;10.740;2022-09-01T07:32:37;18.30;99.90
9403;DHT22;4741;49.834;10.740;2022-09-01T07:35:14;18.70;99.90
9403;DHT22;4741;49.834;10.740;2022-09-01T07:37:41;18.70;99.90
9403;DHT22;4741;49.834;10.740;2022-09-01T07:40:38;18.70;99.90
9403;DHT22;4741;49.834;10.740;2022-09-01T07:43:25;19.10;99.90
9403;DHT22;4741;49.834;10.740;2022-09-01T07:46:02;19.10;99.90
9403;DHT22;4741;49.834;10.740;2022-09-01T07:48:54;20.30;99.90
9403;DHT22;4741;49.834;10.740;2022-09-01T07:54:09;19.40;99.90
9403;DHT22;4741;49.834;10.740;2022-09-01T07:56:39;19.20;99.90
9403;DHT22;4741;49.834;10.740;2022-09-01T07:59:06;20.60;99.90
9403;DHT22;4741;49.834;10.740;2022-09-01T08:01:40;19.80;99.90
9403;DHT22;4741;49.834;10.740;2022-09-01T08:04:11;19.90;99.90
9403;DHT22;4741;49.834;10.740;2022-09-01T08:06:38;20.80;99.90
9403;DHT22;4741;49.834;10.740;2022-09-01T08:11:37;20.10;99.90
9403;DHT22;4741;49.834;10.740;2022-09-01T08:14:23;20.80;99.90
9403;DHT22;4741;49.834;10.740;2022-09-01T08:19:18;20.20;99.90
9403;DHT22;4741;49.834;10.740;2022-09-01T08:24:12;20.50;99.90
9403;DHT22;4741;49.834;10.740;2022-09-01T08:26:39;21.00;99.90
9403;DHT22;4741;49.834;10.740;2022-09-01T08:31:33;20.60;99.90
9403;DHT22;4741;49.834;10.740;2022-09-01T08:34:01;20.10;99.90
9403;DHT22;4741;49.834;10.740;2022-09-01T08:36:30;19.50;99.90
9403;DHT22;4741;49.834;10.740;2022-09-01T08:38:57;20.80;99.90
9403;DHT22;4741;49.834;10.740;2022-09-01T08:41:35;20.90;99.90
9403;DHT22;4741;49.834;10.740;2022-09-01T08:46:52;21.00;99.90
9403;DHT22;4741;49.834;10.740;2022-09-01T08:49:22;21.10;99.90
9403;DHT22;4741;49.834;10.740;2022-09-01T08:51:53;21.70;99.90
9403;DHT22;4741;49.834;10.740;2022-09-01T08:54:30;21.10;99.90
9403;DHT22;4741;49.834;10.740;2022-09-01T08:57:02;22.00;99.90
9403;DHT22;4741;49.834;10.740;2022-09-01T08:59:31;21.30;99.90
9403;DHT22;4741;49.834;10.740;2022-09-01T09:02:20;22.30;99.90
9403;DHT22;4741;49.834;10.740;2022-09-01T09:04:56;21.50;99.90
9403;DHT22;4741;49.834;10.740;2022-09-01T09:07:33;21.60;99.90
9403;DHT22;4741;49.834;10.740;2022-09-01T09:17:51;22.00;99.90
9403;DHT22;4741;49.834;10.740;2022-09-01T09:20:26;22.30;99.90
9403;DHT22;4741;49.834;10.740;2022-09-01T09:22:53;22.80;99.90
9403;DHT22;4741;49.834;10.740;2022-09-01T09:25:20;22.10;99.90
9403;DHT22;4741;49.834;10.740;2022-09-01T09:27:49;22.30;99.90
9403;DHT22;4741;49.834;10.740;2022-09-01T09:30:26;23.50;99.90
9403;DHT22;4741;49.834;10.740;2022-09-01T09:35:49;22.70;99.90
9403;DHT22;4741;49.834;10.740;2022-09-01T09:38:19;22.60;99.90
9403;DHT22;4741;49.834;10.740;2022-09-01T09:41:14;22.70;99.90
9403;DHT22;4741;49.834;10.740;2022-09-01T09:43:55;22.60;99.90
9403;DHT22;4741;49.834;10.740;2022-09-01T09:49:15;23.80;99.90
9403;DHT22;4741;49.834;10.740;2022-09-01T09:51:43;22.50;99.90
9403;DHT22;4741;49.834;10.740;2022-09-01T09:54:11;23.00;99.90
9403;DHT22;4741;49.834;10.740;2022-09-01T09:56:39;22.80;99.90
9403;DHT22;4741;49.834;10.740;2022-09-01T09:59:21;23.20;99.90
9403;DHT22;4741;49.834;10.740;2022-09-01T10:02:14;23.40;99.90
9403;DHT22;4741;49.834;10.740;2022-09-01T10:04:43;23.60;99.90
9403;DHT22;4741;49.834;10.740;2022-09-01T10:07:30;24.50;99.90
9403;DHT22;4741;49.834;10.740;2022-09-01T10:09:58;23.50;99.90
9403;DHT22;4741;49.834;10.740;2022-09-01T10:12:26;24.10;99.90
9403;DHT22;4741;49.834;10.740;2022-09-01T10:15:05;24.50;99.90
9403;DHT22;4741;49.834;10.740;2022-09-01T10:17:42;23.90;99.90
9403;DHT22;4741;49.834;10.740;2022-09-01T10:20:12;23.60;99.90
9403;DHT22;4741;49.834;10.740;2022-09-01T10:25:07;24.50;99.90
9403;DHT22;4741;49.834;10.740;2022-09-01T10:27:39;24.50;99.90
9403;DHT22;4741;49.834;10.740;2022-09-01T10:32:57;23.90;99.90
9403;DHT22;4741;49.834;10.740;2022-09-01T10:36:05;23.70;99.90
9403;DHT22;4741;49.834;10.740;2022-09-01T10:38:38;23.20;99.90
9403;DHT22;4741;49.834;10.740;2022-09-01T10:42:07;23.20;99.90
9403;DHT22;4741;49.834;10.740;2022-09-01T10:44:09;23.80;99.90
9403;DHT22;4741;49.834;10.740;2022-09-01T10:52:33;24.10;99.90
9403;DHT22;4741;49.834;10.740;2022-09-01T11:01:01;22.70;99.90
9403;DHT22;4741;49.834;10.740;2022-09-01T11:03:48;22.50;99.90
9403;DHT22;4741;49.834;10.740;2022-09-01T11:14:51;23.40;99.90
9403;DHT22;4741;49.834;10.740;2022-09-01T11:17:28;24.20;99.90
9403;DHT22;4741;49.834;10.740;2022-09-01T11:23:02;23.40;99.90
9403;DHT22;4741;49.834;10.740;2022-09-01T11:25:46;22.50;99.90
9403;DHT22;4741;49.834;10.740;2022-09-01T11:32:03;24.00;99.90
9403;DHT22;4741;49.834;10.740;2022-09-01T11:34:58;25.30;99.90
9403;DHT22;4741;49.834;10.740;2022-09-01T11:37:26;23.90;99.90
9403;DHT22;4741;49.834;10.740;2022-09-01T11:42:45;24.00;99.90
9403;DHT22;4741;49.834;10.740;2022-09-01T11:53:21;24.20;99.90
9403;DHT22;4741;49.834;10.740;2022-09-01T12:10:27;24.10;99.90
9403;DHT22;4741;49.834;10.740;2022-09-01T12:13:32;23.70;99.90
9403;DHT22;4741;49.834;10.740;2022-09-01T12:16:19;24.50;99.90
9403;DHT22;4741;49.834;10.740;2022-09-01T12:22:42;24.60;99.90
9403;DHT22;4741;49.834;10.740;2022-09-01T12:25:31;24.70;99.90
9403;DHT22;4741;49.834;10.740;2022-09-01T12:33:17;25.50;99.90
9403;DHT22;4741;49.834;10.740;2022-09-01T12:35:51;25.60;99.90
9403;DHT22;4741;49.834;10.740;2022-09-01T12:38:46;26.00;99.90
9403;DHT22;4741;49.834;10.740;2022-09-01T12:41:23;25.40;99.90
9403;DHT22;4741;49.834;10.740;2022-09-01T12:46:41;25.80;99.90
9403;DHT22;4741;49.834;10.740;2022-09-01T12:51:36;25.70;99.90
9403;DHT22;4741;49.834;10.740;2022-09-01T12:56:31;26.40;99.90
9403;DHT22;4741;49.834;10.740;2022-09-01T13:39:15;30.40;91.20
9403;DHT22;4741;49.834;10.740;2022-09-01T13:52:10;26.20;99.90
9403;DHT22;4741;49.834;10.740;2022-09-01T13:54:44;25.80;94.50
9403;DHT22;4741;49.834;10.740;2022-09-01T13:57:11;25.90;99.70
9403;DHT22;4741;49.834;10.740;2022-09-01T13:59:38;27.30;98.50
9403;DHT22;4741;49.834;10.740;2022-09-01T14:02:07;26.10;97.50
9403;DHT22;4741;49.834;10.740;2022-09-01T14:09:35;29.60;99.90
9403;DHT22;4741;49.834;10.740;2022-09-01T14:14:31;27.90;99.90
9403;DHT22;4741;49.834;10.740;2022-09-01T14:19:50;30.90;95.90
9403;DHT22;4741;49.834;10.740;2022-09-01T14:27:14;33.20;99.90
9403;DHT22;4741;49.834;10.740;2022-09-01T14:32:06;32.40;99.90
9403;DHT22;4741;49.834;10.740;2022-09-01T14:46:52;31.80;92.90
9403;DHT22;4741;49.834;10.740;2022-09-01T14:51:47;30.00;99.90
9403;DHT22;4741;49.834;10.740;2022-09-01T14:54:35;29.90;99.90
9403;DHT22;4741;49.834;10.740;2022-09-01T14:57:02;29.80;83.10
9403;DHT22;4741;49.834;10.740;2022-09-01T16:08:56;26.90;91.90
9403;DHT22;4741;49.834;10.740;2022-09-01T16:11:23;27.90;87.60
9403;DHT22;4741;49.834;10.740;2022-09-01T16:14:04;28.10;84.80
9403;DHT22;4741;49.834;10.740;2022-09-01T16:19:27;28.50;99.90
9403;DHT22;4741;49.834;10.740;2022-09-01T16:31:47;29.00;99.90
9403;DHT22;4741;49.834;10.740;2022-09-01T16:34:16;28.10;99.90
9403;DHT22;4741;49.834;10.740;2022-09-01T16:37:08;26.50;99.90
9403;DHT22;4741;49.834;10.740;2022-09-01T16:43:05;25.10;99.90
9403;DHT22;4741;49.834;10.740;2022-09-01T16:45:43;24.90;99.90
9403;DHT22;4741;49.834;10.740;2022-09-01T16:50:44;24.20;91.70
9403;DHT22;4741;49.834;10.740;2022-09-01T16:56:04;23.70;91.90
9403;DHT22;4741;49.834;10.740;2022-09-01T17:03:33;23.20;93.10
9403;DHT22;4741;49.834;10.740;2022-09-01T17:08:48;23.00;94.00
9403;DHT22;4741;49.834;10.740;2022-09-01T17:14:15;22.60;94.30
9403;DHT22;4741;49.834;10.740;2022-09-01T17:16:47;22.50;94.50
9403;DHT22;4741;49.834;10.740;2022-09-01T17:21:42;22.30;94.70
9403;DHT22;4741;49.834;10.740;2022-09-01T17:26:57;22.10;94.80
9403;DHT22;4741;49.834;10.740;2022-09-01T17:29:28;21.90;95.10
9403;DHT22;4741;49.834;10.740;2022-09-01T17:34:38;21.80;95.10
9403;DHT22;4741;49.834;10.740;2022-09-01T17:40:03;21.60;95.90
9403;DHT22;4741;49.834;10.740;2022-09-01T17:42:45;21.40;96.10
9403;DHT22;4741;49.834;10.740;2022-09-01T17:47:57;21.10;96.90
9403;DHT22;4741;49.834;10.740;2022-09-01T17:53:30;21.00;97.20
9403;DHT22;4741;49.834;10.740;2022-09-01T17:56:00;20.90;97.70
9403;DHT22;4741;49.834;10.740;2022-09-01T18:01:14;20.70;98.90
9403;DHT22;4741;49.834;10.740;2022-09-01T18:04:20;20.70;98.80
9403;DHT22;4741;49.834;10.740;2022-09-01T18:06:46;20.50;99.10
9403;DHT22;4741;49.834;10.740;2022-09-01T18:09:16;20.40;99.20
9403;DHT22;4741;49.834;10.740;2022-09-01T18:11:54;21.20;99.90
9403;DHT22;4741;49.834;10.740;2022-09-01T18:14:24;19.50;99.90
9403;DHT22;4741;49.834;10.740;2022-09-01T18:17:27;20.60;99.90
9403;DHT22;4741;49.834;10.740;2022-09-01T18:20:18;20.20;99.90
9403;DHT22;4741;49.834;10.740;2022-09-01T18:22:46;20.20;99.90
9403;DHT22;4741;49.834;10.740;2022-09-01T18:25:19;20.10;99.90
9403;DHT22;4741;49.834;10.740;2022-09-01T18:27:46;20.10;99.90
9403;DHT22;4741;49.834;10.740;2022-09-01T18:32:51;19.90;99.90
9403;DHT22;4741;49.834;10.740;2022-09-01T18:35:30;19.90;99.90
9403;DHT22;4741;49.834;10.740;2022-09-01T18:40:31;19.80;99.90
9403;DHT22;4741;49.834;10.740;2022-09-01T18:43:05;19.70;99.90
9403;DHT22;4741;49.834;10.740;2022-09-01T18:45:37;19.50;99.90
9403;DHT22;4741;49.834;10.740;2022-09-01T19:01:13;19.10;99.90
9403;DHT22;4741;49.834;10.740;2022-09-01T19:03:46;19.80;99.90
9403;DHT22;4741;49.834;10.740;2022-09-01T19:19:57;19.00;99.90
9403;DHT22;4741;49.834;10.740;2022-09-01T19:25:13;20.80;99.90
9403;DHT22;4741;49.834;10.740;2022-09-01T19:30:50;18.80;99.90
9403;DHT22;4741;49.834;10.740;2022-09-01T19:33:23;18.70;99.90
9403;DHT22;4741;49.834;10.740;2022-09-01T19:35:53;18.80;99.90
9403;DHT22;4741;49.834;10.740;2022-09-01T19:38:22;20.50;99.90
9403;DHT22;4741;49.834;10.740;2022-09-01T19:41:07;19.00;99.90
9403;DHT22;4741;49.834;10.740;2022-09-01T19:43:35;18.70;99.90
9403;DHT22;4741;49.834;10.740;2022-09-01T19:46:15;19.80;99.90
9403;DHT22;4741;49.834;10.740;2022-09-01T19:51:21;18.70;99.90
9403;DHT22;4741;49.834;10.740;2022-09-01T19:54:06;18.60;99.90
9403;DHT22;4741;49.834;10.740;2022-09-01T19:56:50;20.50;99.90
9403;DHT22;4741;49.834;10.740;2022-09-01T19:59:34;18.70;99.90
9403;DHT22;4741;49.834;10.740;2022-09-01T20:02:09;18.50;99.90
9403;DHT22;4741;49.834;10.740;2022-09-01T20:04:46;18.40;99.90
9403;DHT22;4741;49.834;10.740;2022-09-01T20:07:27;18.00;99.90
9403;DHT22;4741;49.834;10.740;2022-09-01T20:12:52;18.00;99.90
9403;DHT22;4741;49.834;10.740;2022-09-01T20:15:35;18.00;99.90
9403;DHT22;4741;49.834;10.740;2022-09-01T20:18:06;17.90;99.90
9403;DHT22;4741;49.834;10.740;2022-09-01T20:20:38;18.50;99.90
9403;DHT22;4741;49.834;10.740;2022-09-01T20:23:15;17.30;99.90
9403;DHT22;4741;49.834;10.740;2022-09-01T20:25:51;17.10;99.90
9403;DHT22;4741;49.834;10.740;2022-09-01T20:28:39;18.30;99.90
9403;DHT22;4741;49.834;10.740;2022-09-01T20:31:51;16.80;99.90
9403;DHT22;4741;49.834;10.740;2022-09-01T20:34:08;16.70;99.90
9403;DHT22;4741;49.834;10.740;2022-09-01T20:36:42;16.70;99.90
9403;DHT22;4741;49.834;10.740;2022-09-01T20:39:20;16.60;99.90
9403;DHT22;4741;49.834;10.740;2022-09-01T20:42:09;15.70;99.90
9403;DHT22;4741;49.834;10.740;2022-09-01T20:47:08;17.60;99.90
9403;DHT22;4741;49.834;10.740;2022-09-01T20:49:36;18.10;99.90
9403;DHT22;4741;49.834;10.740;2022-09-01T20:54:47;16.10;99.90
9403;DHT22;4741;49.834;10.740;2022-09-01T20:57:29;15.70;99.90
9403;DHT22;4741;49.834;10.740;2022-09-01T20:59:59;15.70;99.90
9403;DHT22;4741;49.834;10.740;2022-09-01T21:02:38;16.60;99.90
9403;DHT22;4741;49.834;10.740;2022-09-01T21:17:43;15.50;99.90
9403;DHT22;4741;49.834;10.740;2022-09-01T21:20:20;15.60;99.90
9403;DHT22;4741;49.834;10.740;2022-09-01T21:22:48;16.10;99.90
9403;DHT22;4741;49.834;10.740;2022-09-01T21:25:17;17.40;99.90
9403;DHT22;4741;49.834;10.740;2022-09-01T21:27:50;16.80;99.90
9403;DHT22;4741;49.834;10.740;2022-09-01T21:30:18;16.30;99.90
9403;DHT22;4741;49.834;10.740;2022-09-01T21:32:45;15.50;99.90
9403;DHT22;4741;49.834;10.740;2022-09-01T21:35:13;15.30;99.90
9403;DHT22;4741;49.834;10.740;2022-09-01T21:40:08;15.00;99.90
9403;DHT22;4741;49.834;10.740;2022-09-01T21:42:38;14.90;99.90
9403;DHT22;4741;49.834;10.740;2022-09-01T21:45:06;15.70;99.90
9403;DHT22;4741;49.834;10.740;2022-09-01T21:47:34;15.00;99.90
9403;DHT22;4741;49.834;10.740;2022-09-01T21:50:01;16.10;99.90
9403;DHT22;4741;49.834;10.740;2022-09-01T21:52:28;15.40;99.90
9403;DHT22;4741;49.834;10.740;2022-09-01T21:54:54;15.90;99.90
9403;DHT22;4741;49.834;10.740;2022-09-01T21:57:21;15.80;99.90
9403;DHT22;4741;49.834;10.740;2022-09-01T21:59:48;15.80;99.90
9403;DHT22;4741;49.834;10.740;2022-09-01T22:02:15;14.40;99.90
9403;DHT22;4741;49.834;10.740;2022-09-01T22:04:43;15.10;99.90
9403;DHT22;4741;49.834;10.740;2022-09-01T22:07:13;15.30;99.90
9403;DHT22;4741;49.834;10.740;2022-09-01T22:09:44;15.20;99.90
9403;DHT22;4741;49.834;10.740;2022-09-01T22:12:11;14.90;99.90
9403;DHT22;4741;49.834;10.740;2022-09-01T22:14:38;15.60;99.90
9403;DHT22;4741;49.834;10.740;2022-09-01T22:17:05;15.60;99.90
9403;DHT22;4741;49.834;10.740;2022-09-01T22:19:33;14.20;99.90
9403;DHT22;4741;49.834;10.740;2022-09-01T22:21:59;14.70;99.90
9403;DHT22;4741;49.834;10.740;2022-09-01T22:24:27;15.40;99.90
9403;DHT22;4741;49.834;10.740;2022-09-01T22:26:54;13.80;99.90
9403;DHT22;4741;49.834;10.740;2022-09-01T22:29:21;14.40;99.90
9403;DHT22;4741;49.834;10.740;2022-09-01T22:31:48;15.00;99.90
9403;DHT22;4741;49.834;10.740;2022-09-01T22:34:14;13.90;99.90
9403;DHT22;4741;49.834;10.740;2022-09-01T22:36:44;15.10;99.90
9403;DHT22;4741;49.834;10.740;2022-09-01T22:41:38;13.80;99.90
9403;DHT22;4741;49.834;10.740;2022-09-01T22:44:05;14.40;99.90
9403;DHT22;4741;49.834;10.740;2022-09-01T22:46:34;14.50;99.90
9403;DHT22;4741;49.834;10.740;2022-09-01T22:49:01;14.20;99.90
9403;DHT22;4741;49.834;10.740;2022-09-01T22:51:27;13.80;99.90
9403;DHT22;4741;49.834;10.740;2022-09-01T22:53:54;14.10;99.90